sensor_id;sensor_type;location;lat;lon;timestamp;P1;durP1;ratioP1;P2;durP2;ratioP2
78740;SDS011;68062;48.726;9.370;2023-02-26T00:01:37;4.40;;;2.10;;
78740;SDS011;68062;48.726;9.370;2023-02-26T00:04:05;3.50;;;1.90;;
78740;SDS011;68062;48.726;9.370;2023-02-26T00:06:34;2.30;;;1.60;;
78740;SDS011;68062;48.726;9.370;2023-02-26T00:09:02;2.63;;;1.77;;
78740;SDS011;68062;48.726;9.370;2023-02-26T00:11:29;3.17;;;1.83;;
78740;SDS011;68062;48.726;9.370;2023-02-26T00:13:57;2.17;;;1.60;;
78740;SDS011;68062;48.726;9.370;2023-02-26T00:16:25;1.10;;;1.00;;
78740;SDS011;68062;48.726;9.370;2023-02-26T00:18:55;3.63;;;1.73;;
78740;SDS011;68062;48.726;9.370;2023-02-26T00:21:23;2.10;;;1.30;;
78740;SDS011;68062;48.726;9.370;2023-02-26T00:23:50;2.40;;;1.77;;
78740;SDS011;68062;48.726;9.370;2023-02-26T00:26:17;2.73;;;1.80;;
78740;SDS011;68062;48.726;9.370;2023-02-26T00:28:44;5.10;;;1.90;;
78740;SDS011;68062;48.726;9.370;2023-02-26T00:31:12;1.63;;;1.53;;
78740;SDS011;68062;48.726;9.370;2023-02-26T00:33:41;2.77;;;1.50;;
78740;SDS011;68062;48.726;9.370;2023-02-26T00:36:12;3.00;;;1.97;;
78740;SDS011;68062;48.726;9.370;2023-02-26T00:38:46;2.70;;;1.80;;
78740;SDS011;68062;48.726;9.370;2023-02-26T00:41:21;5.23;;;2.30;;
78740;SDS011;68062;48.726;9.370;2023-02-26T00:43:48;2.00;;;1.63;;
78740;SDS011;68062;48.726;9.370;2023-02-26T00:46:17;1.87;;;1.83;;
78740;SDS011;68062;48.726;9.370;2023-02-26T00:48:52;1.90;;;1.67;;
78740;SDS011;68062;48.726;9.370;2023-02-26T00:51:28;7.63;;;3.00;;
78740;SDS011;68062;48.726;9.370;2023-02-26T00:53:58;4.23;;;1.97;;
78740;SDS011;68062;48.726;9.370;2023-02-26T00:56:33;4.43;;;2.60;;
78740;SDS011;68062;48.726;9.370;2023-02-26T00:58:59;2.30;;;2.03;;
78740;SDS011;68062;48.726;9.370;2023-02-26T01:01:26;1.80;;;1.70;;
78740;SDS011;68062;48.726;9.370;2023-02-26T01:03:52;2.30;;;1.77;;
78740;SDS011;68062;48.726;9.370;2023-02-26T01:06:20;2.30;;;1.60;;
78740;SDS011;68062;48.726;9.370;2023-02-26T01:08:52;4.47;;;2.80;;
78740;SDS011;68062;48.726;9.370;2023-02-26T01:11:23;1.77;;;1.47;;
78740;SDS011;68062;48.726;9.370;2023-02-26T01:13:50;3.23;;;1.77;;
78740;SDS011;68062;48.726;9.370;2023-02-26T01:16:19;2.77;;;1.40;;
78740;SDS011;68062;48.726;9.370;2023-02-26T01:18:51;2.63;;;1.87;;
78740;SDS011;68062;48.726;9.370;2023-02-26T01:21:22;2.77;;;2.57;;
78740;SDS011;68062;48.726;9.370;2023-02-26T01:23:55;2.17;;;1.50;;
78740;SDS011;68062;48.726;9.370;2023-02-26T01:26:22;3.20;;;1.90;;
78740;SDS011;68062;48.726;9.370;2023-02-26T01:28:57;2.73;;;2.20;;
78740;SDS011;68062;48.726;9.370;2023-02-26T01:31:29;2.27;;;1.70;;
78740;SDS011;68062;48.726;9.370;2023-02-26T01:34:02;2.30;;;1.63;;
78740;SDS011;68062;48.726;9.370;2023-02-26T01:36:35;2.60;;;1.33;;
78740;SDS011;68062;48.726;9.370;2023-02-26T01:39:11;2.03;;;1.87;;
78740;SDS011;68062;48.726;9.370;2023-02-26T01:41:45;2.03;;;1.87;;
78740;SDS011;68062;48.726;9.370;2023-02-26T01:44:14;3.20;;;1.77;;
78740;SDS011;68062;48.726;9.370;2023-02-26T01:47:00;5.03;;;2.10;;
78740;SDS011;68062;48.726;9.370;2023-02-26T01:49:35;2.00;;;1.90;;
78740;SDS011;68062;48.726;9.370;2023-02-26T01:52:03;3.03;;;2.00;;
78740;SDS011;68062;48.726;9.370;2023-02-26T01:54:33;2.77;;;2.23;;
78740;SDS011;68062;48.726;9.370;2023-02-26T01:57:02;1.93;;;1.73;;
78740;SDS011;68062;48.726;9.370;2023-02-26T01:59:31;3.57;;;1.93;;
78740;SDS011;68062;48.726;9.370;2023-02-26T02:02:00;3.70;;;3.40;;
78740;SDS011;68062;48.726;9.370;2023-02-26T02:04:29;2.70;;;2.50;;
78740;SDS011;68062;48.726;9.370;2023-02-26T02:06:57;2.00;;;1.90;;
78740;SDS011;68062;48.726;9.370;2023-02-26T02:09:25;2.33;;;1.73;;
78740;SDS011;68062;48.726;9.370;2023-02-26T02:11:58;1.83;;;1.60;;
78740;SDS011;68062;48.726;9.370;2023-02-26T02:14:36;2.90;;;2.20;;
78740;SDS011;68062;48.726;9.370;2023-02-26T02:17:11;2.70;;;2.17;;
78740;SDS011;68062;48.726;9.370;2023-02-26T02:19:46;2.50;;;1.63;;
78740;SDS011;68062;48.726;9.370;2023-02-26T02:22:28;5.63;;;2.70;;
78740;SDS011;68062;48.726;9.370;2023-02-26T02:25:09;2.73;;;1.90;;
78740;SDS011;68062;48.726;9.370;2023-02-26T02:27:48;2.77;;;1.80;;
78740;SDS011;68062;48.726;9.370;2023-02-26T02:30:28;2.30;;;2.17;;
78740;SDS011;68062;48.726;9.370;2023-02-26T02:33:05;2.87;;;2.33;;
78740;SDS011;68062;48.726;9.370;2023-02-26T02:35:37;6.17;;;2.03;;
78740;SDS011;68062;48.726;9.370;2023-02-26T02:38:08;2.47;;;1.83;;
78740;SDS011;68062;48.726;9.370;2023-02-26T02:40:41;1.77;;;1.73;;
78740;SDS011;68062;48.726;9.370;2023-02-26T02:43:12;4.90;;;2.00;;
78740;SDS011;68062;48.726;9.370;2023-02-26T02:45:41;2.30;;;2.00;;
78740;SDS011;68062;48.726;9.370;2023-02-26T02:48:12;4.63;;;1.97;;
78740;SDS011;68062;48.726;9.370;2023-02-26T02:50:43;2.07;;;1.83;;
78740;SDS011;68062;48.726;9.370;2023-02-26T02:53:15;4.90;;;2.37;;
78740;SDS011;68062;48.726;9.370;2023-02-26T02:55:47;2.23;;;2.03;;
78740;SDS011;68062;48.726;9.370;2023-02-26T02:58:20;2.37;;;2.10;;
78740;SDS011;68062;48.726;9.370;2023-02-26T03:00:50;3.53;;;1.87;;
78740;SDS011;68062;48.726;9.370;2023-02-26T03:03:23;2.67;;;2.17;;
78740;SDS011;68062;48.726;9.370;2023-02-26T03:05:54;3.97;;;1.87;;
78740;SDS011;68062;48.726;9.370;2023-02-26T03:08:21;3.30;;;2.10;;
78740;SDS011;68062;48.726;9.370;2023-02-26T03:10:51;3.37;;;1.90;;
78740;SDS011;68062;48.726;9.370;2023-02-26T03:13:18;2.60;;;2.20;;
78740;SDS011;68062;48.726;9.370;2023-02-26T03:15:50;2.30;;;2.03;;
78740;SDS011;68062;48.726;9.370;2023-02-26T03:18:27;3.17;;;2.10;;
78740;SDS011;68062;48.726;9.370;2023-02-26T03:21:03;3.87;;;2.37;;
78740;SDS011;68062;48.726;9.370;2023-02-26T03:23:35;4.17;;;1.90;;
78740;SDS011;68062;48.726;9.370;2023-02-26T03:26:09;3.43;;;1.80;;
78740;SDS011;68062;48.726;9.370;2023-02-26T03:28:39;2.60;;;1.90;;
78740;SDS011;68062;48.726;9.370;2023-02-26T03:31:11;1.83;;;1.60;;
78740;SDS011;68062;48.726;9.370;2023-02-26T03:33:45;2.57;;;1.73;;
78740;SDS011;68062;48.726;9.370;2023-02-26T03:36:23;1.97;;;1.87;;
78740;SDS011;68062;48.726;9.370;2023-02-26T03:38:54;2.60;;;2.20;;
78740;SDS011;68062;48.726;9.370;2023-02-26T03:41:31;2.80;;;1.70;;
78740;SDS011;68062;48.726;9.370;2023-02-26T03:44:02;3.37;;;1.60;;
78740;SDS011;68062;48.726;9.370;2023-02-26T03:46:34;2.70;;;1.90;;
78740;SDS011;68062;48.726;9.370;2023-02-26T03:49:06;3.53;;;2.50;;
78740;SDS011;68062;48.726;9.370;2023-02-26T03:51:36;2.03;;;1.80;;
78740;SDS011;68062;48.726;9.370;2023-02-26T03:54:05;2.40;;;1.90;;
78740;SDS011;68062;48.726;9.370;2023-02-26T03:56:36;2.43;;;2.10;;
78740;SDS011;68062;48.726;9.370;2023-02-26T03:59:07;2.33;;;2.17;;
78740;SDS011;68062;48.726;9.370;2023-02-26T04:01:34;2.40;;;2.20;;
78740;SDS011;68062;48.726;9.370;2023-02-26T04:04:08;4.20;;;2.03;;
78740;SDS011;68062;48.726;9.370;2023-02-26T04:06:38;4.30;;;3.20;;
78740;SDS011;68062;48.726;9.370;2023-02-26T04:09:05;2.50;;;1.63;;
78740;SDS011;68062;48.726;9.370;2023-02-26T04:11:32;6.93;;;2.60;;
78740;SDS011;68062;48.726;9.370;2023-02-26T04:14:00;1.87;;;1.63;;
78740;SDS011;68062;48.726;9.370;2023-02-26T04:16:27;3.40;;;2.70;;
78740;SDS011;68062;48.726;9.370;2023-02-26T04:18:53;1.87;;;1.77;;
78740;SDS011;68062;48.726;9.370;2023-02-26T04:21:21;3.30;;;1.87;;
78740;SDS011;68062;48.726;9.370;2023-02-26T04:23:48;4.00;;;1.70;;
78740;SDS011;68062;48.726;9.370;2023-02-26T04:26:14;2.43;;;1.83;;
78740;SDS011;68062;48.726;9.370;2023-02-26T04:28:41;2.70;;;2.10;;
78740;SDS011;68062;48.726;9.370;2023-02-26T04:31:07;1.70;;;1.70;;
78740;SDS011;68062;48.726;9.370;2023-02-26T04:33:35;1.70;;;1.60;;
78740;SDS011;68062;48.726;9.370;2023-02-26T04:36:02;1.50;;;1.40;;
78740;SDS011;68062;48.726;9.370;2023-02-26T04:38:31;2.33;;;2.03;;
78740;SDS011;68062;48.726;9.370;2023-02-26T04:40:57;3.03;;;1.60;;
78740;SDS011;68062;48.726;9.370;2023-02-26T04:43:23;2.40;;;1.40;;
78740;SDS011;68062;48.726;9.370;2023-02-26T04:45:53;3.33;;;1.80;;
78740;SDS011;68062;48.726;9.370;2023-02-26T04:48:19;1.50;;;1.40;;
78740;SDS011;68062;48.726;9.370;2023-02-26T04:50:46;1.70;;;1.20;;
78740;SDS011;68062;48.726;9.370;2023-02-26T04:53:12;2.10;;;1.70;;
78740;SDS011;68062;48.726;9.370;2023-02-26T04:55:40;2.00;;;1.67;;
78740;SDS011;68062;48.726;9.370;2023-02-26T04:58:07;2.53;;;1.60;;
78740;SDS011;68062;48.726;9.370;2023-02-26T05:00:34;1.47;;;1.37;;
78740;SDS011;68062;48.726;9.370;2023-02-26T05:03:01;2.20;;;1.50;;
78740;SDS011;68062;48.726;9.370;2023-02-26T05:05:27;3.70;;;1.80;;
78740;SDS011;68062;48.726;9.370;2023-02-26T05:07:54;1.70;;;1.60;;
78740;SDS011;68062;48.726;9.370;2023-02-26T05:10:20;5.20;;;1.80;;
78740;SDS011;68062;48.726;9.370;2023-02-26T05:12:49;1.70;;;1.63;;
78740;SDS011;68062;48.726;9.370;2023-02-26T05:15:15;1.43;;;1.33;;
78740;SDS011;68062;48.726;9.370;2023-02-26T05:17:42;2.87;;;1.53;;
78740;SDS011;68062;48.726;9.370;2023-02-26T05:20:09;4.90;;;1.97;;
78740;SDS011;68062;48.726;9.370;2023-02-26T05:22:36;1.57;;;1.47;;
78740;SDS011;68062;48.726;9.370;2023-02-26T05:25:03;6.53;;;2.50;;
78740;SDS011;68062;48.726;9.370;2023-02-26T05:27:31;2.13;;;1.43;;
78740;SDS011;68062;48.726;9.370;2023-02-26T05:29:59;1.70;;;1.40;;
78740;SDS011;68062;48.726;9.370;2023-02-26T05:32:26;1.90;;;1.80;;
78740;SDS011;68062;48.726;9.370;2023-02-26T05:34:52;4.77;;;2.23;;
78740;SDS011;68062;48.726;9.370;2023-02-26T05:37:19;2.10;;;1.50;;
78740;SDS011;68062;48.726;9.370;2023-02-26T05:39:45;4.30;;;1.40;;
78740;SDS011;68062;48.726;9.370;2023-02-26T05:42:12;1.60;;;1.50;;
78740;SDS011;68062;48.726;9.370;2023-02-26T05:44:38;2.50;;;1.90;;
78740;SDS011;68062;48.726;9.370;2023-02-26T05:47:06;1.70;;;1.50;;
78740;SDS011;68062;48.726;9.370;2023-02-26T05:49:32;2.93;;;1.47;;
78740;SDS011;68062;48.726;9.370;2023-02-26T05:51:59;3.20;;;1.97;;
78740;SDS011;68062;48.726;9.370;2023-02-26T05:54:25;2.60;;;1.73;;
78740;SDS011;68062;48.726;9.370;2023-02-26T05:56:52;4.57;;;1.80;;
78740;SDS011;68062;48.726;9.370;2023-02-26T05:59:19;1.87;;;1.80;;
78740;SDS011;68062;48.726;9.370;2023-02-26T06:01:46;2.57;;;1.77;;
78740;SDS011;68062;48.726;9.370;2023-02-26T06:04:14;1.80;;;1.53;;
78740;SDS011;68062;48.726;9.370;2023-02-26T06:06:41;1.77;;;1.70;;
78740;SDS011;68062;48.726;9.370;2023-02-26T06:09:07;2.03;;;1.70;;
78740;SDS011;68062;48.726;9.370;2023-02-26T06:11:34;3.50;;;2.00;;
78740;SDS011;68062;48.726;9.370;2023-02-26T06:14:02;1.77;;;1.60;;
78740;SDS011;68062;48.726;9.370;2023-02-26T06:16:29;3.03;;;2.23;;
78740;SDS011;68062;48.726;9.370;2023-02-26T06:18:55;2.27;;;2.10;;
78740;SDS011;68062;48.726;9.370;2023-02-26T06:21:23;2.90;;;2.17;;
78740;SDS011;68062;48.726;9.370;2023-02-26T06:23:50;3.50;;;2.53;;
78740;SDS011;68062;48.726;9.370;2023-02-26T06:26:17;2.40;;;1.47;;
78740;SDS011;68062;48.726;9.370;2023-02-26T06:28:43;1.83;;;1.80;;
78740;SDS011;68062;48.726;9.370;2023-02-26T06:31:10;2.30;;;1.70;;
78740;SDS011;68062;48.726;9.370;2023-02-26T06:33:36;2.90;;;2.23;;
78740;SDS011;68062;48.726;9.370;2023-02-26T06:36:03;2.23;;;2.03;;
78740;SDS011;68062;48.726;9.370;2023-02-26T06:38:31;5.03;;;2.57;;
78740;SDS011;68062;48.726;9.370;2023-02-26T06:40:57;3.83;;;2.30;;
78740;SDS011;68062;48.726;9.370;2023-02-26T06:43:25;3.50;;;2.60;;
78740;SDS011;68062;48.726;9.370;2023-02-26T06:45:52;3.47;;;2.13;;
78740;SDS011;68062;48.726;9.370;2023-02-26T06:48:18;2.30;;;2.10;;
78740;SDS011;68062;48.726;9.370;2023-02-26T06:50:45;2.70;;;2.23;;
78740;SDS011;68062;48.726;9.370;2023-02-26T06:53:11;2.73;;;1.87;;
78740;SDS011;68062;48.726;9.370;2023-02-26T06:55:42;5.23;;;2.27;;
78740;SDS011;68062;48.726;9.370;2023-02-26T06:58:10;7.93;;;2.87;;
78740;SDS011;68062;48.726;9.370;2023-02-26T07:00:36;3.90;;;2.37;;
78740;SDS011;68062;48.726;9.370;2023-02-26T07:03:04;3.47;;;2.23;;
78740;SDS011;68062;48.726;9.370;2023-02-26T07:05:32;3.70;;;2.40;;
78740;SDS011;68062;48.726;9.370;2023-02-26T07:07:58;2.27;;;2.07;;
78740;SDS011;68062;48.726;9.370;2023-02-26T07:10:25;2.93;;;2.47;;
78740;SDS011;68062;48.726;9.370;2023-02-26T07:12:52;2.30;;;2.10;;
78740;SDS011;68062;48.726;9.370;2023-02-26T07:15:19;5.50;;;2.47;;
78740;SDS011;68062;48.726;9.370;2023-02-26T07:17:46;3.10;;;1.43;;
78740;SDS011;68062;48.726;9.370;2023-02-26T07:20:12;3.60;;;2.23;;
78740;SDS011;68062;48.726;9.370;2023-02-26T07:22:38;3.40;;;2.20;;
78740;SDS011;68062;48.726;9.370;2023-02-26T07:25:05;2.47;;;1.97;;
78740;SDS011;68062;48.726;9.370;2023-02-26T07:27:32;3.13;;;1.40;;
78740;SDS011;68062;48.726;9.370;2023-02-26T07:30:00;3.03;;;2.20;;
78740;SDS011;68062;48.726;9.370;2023-02-26T07:32:27;3.70;;;2.40;;
78740;SDS011;68062;48.726;9.370;2023-02-26T07:34:54;3.23;;;1.90;;
78740;SDS011;68062;48.726;9.370;2023-02-26T07:37:20;1.70;;;1.37;;
78740;SDS011;68062;48.726;9.370;2023-02-26T07:39:47;2.13;;;2.00;;
78740;SDS011;68062;48.726;9.370;2023-02-26T07:42:14;3.50;;;2.00;;
78740;SDS011;68062;48.726;9.370;2023-02-26T07:44:40;2.70;;;1.50;;
78740;SDS011;68062;48.726;9.370;2023-02-26T07:47:09;1.50;;;1.33;;
78740;SDS011;68062;48.726;9.370;2023-02-26T07:49:35;2.33;;;1.60;;
78740;SDS011;68062;48.726;9.370;2023-02-26T07:52:02;3.33;;;1.80;;
78740;SDS011;68062;48.726;9.370;2023-02-26T07:54:31;5.50;;;1.97;;
78740;SDS011;68062;48.726;9.370;2023-02-26T07:56:57;1.80;;;1.73;;
78740;SDS011;68062;48.726;9.370;2023-02-26T07:59:23;1.80;;;1.70;;
78740;SDS011;68062;48.726;9.370;2023-02-26T08:01:50;9.57;;;4.87;;
78740;SDS011;68062;48.726;9.370;2023-02-26T08:04:18;7.03;;;3.10;;
78740;SDS011;68062;48.726;9.370;2023-02-26T08:06:44;2.83;;;2.33;;
78740;SDS011;68062;48.726;9.370;2023-02-26T08:09:11;2.87;;;1.90;;
78740;SDS011;68062;48.726;9.370;2023-02-26T08:11:37;2.77;;;1.90;;
78740;SDS011;68062;48.726;9.370;2023-02-26T08:14:07;8.97;;;3.20;;
78740;SDS011;68062;48.726;9.370;2023-02-26T08:16:37;4.40;;;3.80;;
78740;SDS011;68062;48.726;9.370;2023-02-26T08:19:04;4.23;;;3.50;;
78740;SDS011;68062;48.726;9.370;2023-02-26T08:21:31;1.97;;;1.67;;
78740;SDS011;68062;48.726;9.370;2023-02-26T08:23:58;2.90;;;1.90;;
78740;SDS011;68062;48.726;9.370;2023-02-26T08:26:25;2.70;;;1.90;;
78740;SDS011;68062;48.726;9.370;2023-02-26T08:28:51;1.87;;;1.40;;
78740;SDS011;68062;48.726;9.370;2023-02-26T08:31:18;1.80;;;1.70;;
78740;SDS011;68062;48.726;9.370;2023-02-26T08:33:45;1.57;;;1.43;;
78740;SDS011;68062;48.726;9.370;2023-02-26T08:36:12;1.60;;;1.10;;
78740;SDS011;68062;48.726;9.370;2023-02-26T08:38:40;1.30;;;1.30;;
78740;SDS011;68062;48.726;9.370;2023-02-26T08:41:06;2.33;;;1.90;;
78740;SDS011;68062;48.726;9.370;2023-02-26T08:43:33;2.27;;;1.50;;
78740;SDS011;68062;48.726;9.370;2023-02-26T08:46:00;2.57;;;1.50;;
78740;SDS011;68062;48.726;9.370;2023-02-26T08:48:27;3.45;;;1.80;;
78740;SDS011;68062;48.726;9.370;2023-02-26T08:50:53;2.80;;;1.90;;
78740;SDS011;68062;48.726;9.370;2023-02-26T08:53:20;3.87;;;1.93;;
78740;SDS011;68062;48.726;9.370;2023-02-26T08:55:48;3.33;;;1.80;;
78740;SDS011;68062;48.726;9.370;2023-02-26T08:58:16;2.20;;;2.00;;
78740;SDS011;68062;48.726;9.370;2023-02-26T09:00:43;1.83;;;1.20;;
78740;SDS011;68062;48.726;9.370;2023-02-26T09:03:10;1.53;;;1.43;;
78740;SDS011;68062;48.726;9.370;2023-02-26T09:05:37;2.30;;;2.10;;
78740;SDS011;68062;48.726;9.370;2023-02-26T09:08:05;1.40;;;1.30;;
78740;SDS011;68062;48.726;9.370;2023-02-26T09:10:31;3.00;;;1.37;;
78740;SDS011;68062;48.726;9.370;2023-02-26T09:13:00;2.87;;;1.60;;
78740;SDS011;68062;48.726;9.370;2023-02-26T09:15:27;2.53;;;1.40;;
78740;SDS011;68062;48.726;9.370;2023-02-26T09:17:54;3.57;;;2.13;;
78740;SDS011;68062;48.726;9.370;2023-02-26T09:20:21;2.50;;;1.40;;
78740;SDS011;68062;48.726;9.370;2023-02-26T09:22:47;1.30;;;1.30;;
78740;SDS011;68062;48.726;9.370;2023-02-26T09:25:15;1.60;;;1.50;;
78740;SDS011;68062;48.726;9.370;2023-02-26T09:27:41;1.80;;;1.70;;
78740;SDS011;68062;48.726;9.370;2023-02-26T09:30:10;1.50;;;1.40;;
78740;SDS011;68062;48.726;9.370;2023-02-26T09:32:37;3.30;;;2.60;;
78740;SDS011;68062;48.726;9.370;2023-02-26T09:35:08;4.53;;;1.90;;
78740;SDS011;68062;48.726;9.370;2023-02-26T09:37:37;1.83;;;1.40;;
78740;SDS011;68062;48.726;9.370;2023-02-26T09:40:05;4.50;;;2.03;;
78740;SDS011;68062;48.726;9.370;2023-02-26T09:42:46;1.80;;;1.23;;
78740;SDS011;68062;48.726;9.370;2023-02-26T09:45:29;1.27;;;1.23;;
78740;SDS011;68062;48.726;9.370;2023-02-26T09:47:58;1.43;;;1.40;;
78740;SDS011;68062;48.726;9.370;2023-02-26T09:50:33;1.43;;;1.30;;
78740;SDS011;68062;48.726;9.370;2023-02-26T09:53:06;1.70;;;1.13;;
78740;SDS011;68062;48.726;9.370;2023-02-26T09:55:41;1.83;;;1.53;;
78740;SDS011;68062;48.726;9.370;2023-02-26T09:58:12;2.87;;;1.40;;
78740;SDS011;68062;48.726;9.370;2023-02-26T10:00:46;1.23;;;1.17;;
78740;SDS011;68062;48.726;9.370;2023-02-26T10:03:20;2.07;;;1.30;;
78740;SDS011;68062;48.726;9.370;2023-02-26T10:05:58;1.73;;;1.47;;
78740;SDS011;68062;48.726;9.370;2023-02-26T10:08:50;1.53;;;1.30;;
78740;SDS011;68062;48.726;9.370;2023-02-26T10:11:37;1.93;;;1.50;;
78740;SDS011;68062;48.726;9.370;2023-02-26T10:14:12;3.33;;;1.47;;
78740;SDS011;68062;48.726;9.370;2023-02-26T10:16:47;4.83;;;1.50;;
78740;SDS011;68062;48.726;9.370;2023-02-26T10:19:17;2.07;;;1.23;;
78740;SDS011;68062;48.726;9.370;2023-02-26T10:21:47;4.20;;;1.47;;
78740;SDS011;68062;48.726;9.370;2023-02-26T10:24:18;1.80;;;1.50;;
78740;SDS011;68062;48.726;9.370;2023-02-26T10:26:50;1.93;;;1.30;;
78740;SDS011;68062;48.726;9.370;2023-02-26T10:29:23;1.30;;;1.20;;
78740;SDS011;68062;48.726;9.370;2023-02-26T10:32:01;1.90;;;1.33;;
78740;SDS011;68062;48.726;9.370;2023-02-26T10:34:35;2.53;;;1.47;;
78740;SDS011;68062;48.726;9.370;2023-02-26T10:37:10;1.73;;;1.17;;
78740;SDS011;68062;48.726;9.370;2023-02-26T10:39:42;1.80;;;1.40;;
78740;SDS011;68062;48.726;9.370;2023-02-26T10:42:14;1.40;;;1.30;;
78740;SDS011;68062;48.726;9.370;2023-02-26T10:44:50;1.70;;;1.60;;
78740;SDS011;68062;48.726;9.370;2023-02-26T10:47:30;1.50;;;1.33;;
78740;SDS011;68062;48.726;9.370;2023-02-26T10:50:03;3.13;;;1.20;;
78740;SDS011;68062;48.726;9.370;2023-02-26T10:52:32;3.50;;;1.70;;
78740;SDS011;68062;48.726;9.370;2023-02-26T10:55:03;3.00;;;1.80;;
78740;SDS011;68062;48.726;9.370;2023-02-26T10:57:41;4.90;;;1.90;;
78740;SDS011;68062;48.726;9.370;2023-02-26T11:00:14;1.87;;;1.40;;
78740;SDS011;68062;48.726;9.370;2023-02-26T11:02:46;3.13;;;1.40;;
78740;SDS011;68062;48.726;9.370;2023-02-26T11:05:16;1.37;;;1.30;;
78740;SDS011;68062;48.726;9.370;2023-02-26T11:07:45;1.77;;;1.30;;
78740;SDS011;68062;48.726;9.370;2023-02-26T11:10:16;1.30;;;1.20;;
78740;SDS011;68062;48.726;9.370;2023-02-26T11:12:45;1.83;;;1.63;;
78740;SDS011;68062;48.726;9.370;2023-02-26T11:15:12;1.80;;;1.40;;
78740;SDS011;68062;48.726;9.370;2023-02-26T11:17:40;2.57;;;1.80;;
78740;SDS011;68062;48.726;9.370;2023-02-26T11:20:14;1.47;;;1.37;;
78740;SDS011;68062;48.726;9.370;2023-02-26T11:22:46;1.40;;;1.30;;
78740;SDS011;68062;48.726;9.370;2023-02-26T11:25:16;1.97;;;1.70;;
78740;SDS011;68062;48.726;9.370;2023-02-26T11:27:44;1.23;;;1.13;;
78740;SDS011;68062;48.726;9.370;2023-02-26T11:30:16;1.73;;;1.10;;
78740;SDS011;68062;48.726;9.370;2023-02-26T11:32:44;1.47;;;1.37;;
78740;SDS011;68062;48.726;9.370;2023-02-26T11:35:16;1.40;;;1.30;;
78740;SDS011;68062;48.726;9.370;2023-02-26T11:37:46;2.30;;;1.50;;
78740;SDS011;68062;48.726;9.370;2023-02-26T11:40:16;1.90;;;1.13;;
78740;SDS011;68062;48.726;9.370;2023-02-26T11:42:47;1.40;;;1.27;;
78740;SDS011;68062;48.726;9.370;2023-02-26T11:45:18;4.87;;;1.57;;
78740;SDS011;68062;48.726;9.370;2023-02-26T11:47:46;1.73;;;1.27;;
78740;SDS011;68062;48.726;9.370;2023-02-26T11:50:17;1.33;;;1.03;;
78740;SDS011;68062;48.726;9.370;2023-02-26T11:52:47;1.13;;;1.03;;
78740;SDS011;68062;48.726;9.370;2023-02-26T11:55:21;1.60;;;1.33;;
78740;SDS011;68062;48.726;9.370;2023-02-26T11:57:54;1.00;;;1.00;;
78740;SDS011;68062;48.726;9.370;2023-02-26T12:00:23;2.30;;;1.80;;
78740;SDS011;68062;48.726;9.370;2023-02-26T12:02:55;2.03;;;1.53;;
78740;SDS011;68062;48.726;9.370;2023-02-26T12:05:26;1.60;;;1.50;;
78740;SDS011;68062;48.726;9.370;2023-02-26T12:07:53;1.40;;;1.33;;
78740;SDS011;68062;48.726;9.370;2023-02-26T12:10:21;1.20;;;1.13;;
78740;SDS011;68062;48.726;9.370;2023-02-26T12:12:56;1.47;;;1.17;;
78740;SDS011;68062;48.726;9.370;2023-02-26T12:15:33;2.10;;;1.60;;
78740;SDS011;68062;48.726;9.370;2023-02-26T12:18:11;2.20;;;1.13;;
78740;SDS011;68062;48.726;9.370;2023-02-26T12:20:54;1.57;;;1.47;;
78740;SDS011;68062;48.726;9.370;2023-02-26T12:23:30;1.20;;;1.10;;
78740;SDS011;68062;48.726;9.370;2023-02-26T12:26:14;1.00;;;0.90;;
78740;SDS011;68062;48.726;9.370;2023-02-26T12:28:55;1.87;;;1.30;;
78740;SDS011;68062;48.726;9.370;2023-02-26T12:31:44;3.20;;;1.60;;
78740;SDS011;68062;48.726;9.370;2023-02-26T12:34:32;1.20;;;1.10;;
78740;SDS011;68062;48.726;9.370;2023-02-26T12:37:19;1.20;;;1.10;;
78740;SDS011;68062;48.726;9.370;2023-02-26T12:40:02;1.40;;;1.10;;
78740;SDS011;68062;48.726;9.370;2023-02-26T12:42:39;1.17;;;1.10;;
78740;SDS011;68062;48.726;9.370;2023-02-26T12:45:36;1.20;;;1.10;;
78740;SDS011;68062;48.726;9.370;2023-02-26T12:48:15;1.07;;;0.97;;
78740;SDS011;68062;48.726;9.370;2023-02-26T12:51:02;1.20;;;1.10;;
78740;SDS011;68062;48.726;9.370;2023-02-26T12:53:48;1.67;;;1.20;;
78740;SDS011;68062;48.726;9.370;2023-02-26T12:56:41;1.27;;;1.13;;
78740;SDS011;68062;48.726;9.370;2023-02-26T12:59:20;0.80;;;0.80;;
78740;SDS011;68062;48.726;9.370;2023-02-26T13:01:58;1.40;;;1.30;;
78740;SDS011;68062;48.726;9.370;2023-02-26T13:04:52;1.10;;;1.00;;
78740;SDS011;68062;48.726;9.370;2023-02-26T13:07:55;1.43;;;1.30;;
78740;SDS011;68062;48.726;9.370;2023-02-26T13:10:50;1.10;;;1.00;;
78740;SDS011;68062;48.726;9.370;2023-02-26T13:13:26;1.77;;;1.23;;
78740;SDS011;68062;48.726;9.370;2023-02-26T13:16:08;1.30;;;0.70;;
78740;SDS011;68062;48.726;9.370;2023-02-26T13:18:45;1.23;;;1.07;;
78740;SDS011;68062;48.726;9.370;2023-02-26T13:21:18;3.70;;;1.57;;
78740;SDS011;68062;48.726;9.370;2023-02-26T13:23:48;1.70;;;1.20;;
78740;SDS011;68062;48.726;9.370;2023-02-26T13:26:18;1.50;;;1.40;;
78740;SDS011;68062;48.726;9.370;2023-02-26T13:28:47;1.07;;;1.00;;
78740;SDS011;68062;48.726;9.370;2023-02-26T13:31:19;1.47;;;0.90;;
78740;SDS011;68062;48.726;9.370;2023-02-26T13:33:48;1.57;;;1.50;;
78740;SDS011;68062;48.726;9.370;2023-02-26T13:36:16;1.77;;;1.53;;
78740;SDS011;68062;48.726;9.370;2023-02-26T13:38:51;1.03;;;0.80;;
78740;SDS011;68062;48.726;9.370;2023-02-26T13:41:32;1.07;;;0.90;;
78740;SDS011;68062;48.726;9.370;2023-02-26T13:44:06;1.43;;;1.10;;
78740;SDS011;68062;48.726;9.370;2023-02-26T13:46:46;0.83;;;0.70;;
78740;SDS011;68062;48.726;9.370;2023-02-26T13:49:28;1.00;;;0.90;;
78740;SDS011;68062;48.726;9.370;2023-02-26T13:51:59;0.90;;;0.73;;
78740;SDS011;68062;48.726;9.370;2023-02-26T13:54:33;1.07;;;0.90;;
78740;SDS011;68062;48.726;9.370;2023-02-26T13:57:17;0.90;;;0.80;;
78740;SDS011;68062;48.726;9.370;2023-02-26T13:59:54;1.00;;;0.90;;
78740;SDS011;68062;48.726;9.370;2023-02-26T14:05:33;1.20;;;1.10;;
78740;SDS011;68062;48.726;9.370;2023-02-26T14:08:19;2.10;;;0.90;;
78740;SDS011;68062;48.726;9.370;2023-02-26T14:10:55;1.37;;;0.83;;
78740;SDS011;68062;48.726;9.370;2023-02-26T14:13:29;1.33;;;1.00;;
78740;SDS011;68062;48.726;9.370;2023-02-26T14:15:59;1.37;;;0.90;;
78740;SDS011;68062;48.726;9.370;2023-02-26T14:18:35;0.50;;;0.50;;
78740;SDS011;68062;48.726;9.370;2023-02-26T14:23:59;2.00;;;0.90;;
78740;SDS011;68062;48.726;9.370;2023-02-26T14:26:31;1.17;;;0.87;;
78740;SDS011;68062;48.726;9.370;2023-02-26T14:29:07;0.93;;;0.90;;
78740;SDS011;68062;48.726;9.370;2023-02-26T14:31:54;0.90;;;0.63;;
78740;SDS011;68062;48.726;9.370;2023-02-26T14:34:42;0.97;;;0.83;;
78740;SDS011;68062;48.726;9.370;2023-02-26T14:37:14;1.40;;;0.83;;
78740;SDS011;68062;48.726;9.370;2023-02-26T14:39:45;1.13;;;0.90;;
78740;SDS011;68062;48.726;9.370;2023-02-26T14:42:18;0.80;;;0.70;;
78740;SDS011;68062;48.726;9.370;2023-02-26T14:44:49;0.80;;;0.70;;
78740;SDS011;68062;48.726;9.370;2023-02-26T14:47:20;0.90;;;0.80;;
78740;SDS011;68062;48.726;9.370;2023-02-26T14:49:47;0.77;;;0.70;;
78740;SDS011;68062;48.726;9.370;2023-02-26T14:55:25;1.00;;;0.90;;
78740;SDS011;68062;48.726;9.370;2023-02-26T14:58:00;1.43;;;0.67;;
78740;SDS011;68062;48.726;9.370;2023-02-26T15:00:40;1.33;;;0.80;;
78740;SDS011;68062;48.726;9.370;2023-02-26T15:03:21;1.30;;;1.20;;
78740;SDS011;68062;48.726;9.370;2023-02-26T15:06:04;0.60;;;0.50;;
78740;SDS011;68062;48.726;9.370;2023-02-26T15:08:45;0.80;;;0.70;;
78740;SDS011;68062;48.726;9.370;2023-02-26T15:11:24;0.80;;;0.73;;
78740;SDS011;68062;48.726;9.370;2023-02-26T15:14:32;0.90;;;0.70;;
78740;SDS011;68062;48.726;9.370;2023-02-26T15:17:18;1.00;;;0.80;;
78740;SDS011;68062;48.726;9.370;2023-02-26T15:20:01;1.43;;;0.97;;
78740;SDS011;68062;48.726;9.370;2023-02-26T15:22:37;0.53;;;0.53;;